Time;durP1;ratioP1;P1;durP2;ratioP2;P2;SDS_P1;SDS_P2;PMS_P1;PMS_P2;Temp;Humidity;BMP_temperature;BMP_pressure;BME280_temperature;BME280_humidity;BME280_pressure;Samples;Min_cycle;Max_cycle;Signal;HPM_P1;HPM_P2
2023/08/17 00:00:44;;;;;;;15.05;10.23;;;;;;;25.99;100.00;100544.19;20896477;28;20701;-74
2023/08/17 00:11:07;;;;;;;13.30;10.20;;;;;;;25.94;100.00;100538.16;20883207;28;20052;-74
2023/08/17 00:21:31;;;;;;;17.02;12.05;;;;;;;25.88;100.00;100538.47;20892620;28;20049;-74
2023/08/17 00:31:54;;;;;;;16.20;11.75;;;;;;;25.86;100.00;100537.69;20884459;28;20103;-74
2023/08/17 00:41:58;;;;;;;17.10;12.60;;;;;;;25.83;100.00;100531.56;20904059;28;20433;-75
2023/08/17 00:52:21;;;;;;;17.45;11.75;;;;;;;25.75;100.00;100530.13;20888138;28;20045;-73
2023/08/17 01:02:46;;;;;;;20.98;13.43;;;;;;;25.59;100.00;100521.03;20882782;28;20068;-74
2023/08/17 01:13:15;;;;;;;14.98;11.75;;;;;;;25.59;100.00;100522.88;20897528;28;20063;-73
2023/08/17 01:23:39;;;;;;;15.23;11.55;;;;;;;25.55;100.00;100526.63;20895915;28;20053;-75
2023/08/17 01:34:07;;;;;;;15.73;12.13;;;;;;;25.50;100.00;100529.56;20900021;28;20053;-75
2023/08/17 01:44:30;;;;;;;;;;;;;;;25.49;100.00;100525.09;20886916;28;20460;-74
2023/08/17 01:54:53;;;;;;;15.43;10.98;;;;;;;25.49;100.00;100529.63;20891395;28;19920;-74
2023/08/17 02:05:17;;;;;;;17.25;10.77;;;;;;;25.53;100.00;100528.53;20883106;28;20048;-74
2023/08/17 02:15:42;;;;;;;15.68;10.32;;;;;;;25.62;100.00;100523.56;20885126;28;20061;-73
2023/08/17 02:26:07;;;;;;;16.17;10.85;;;;;;;25.68;100.00;100527.78;20913382;28;20060;-74
2023/08/17 02:36:30;;;;;;;14.25;11.30;;;;;;;25.62;100.00;100512.75;20883186;28;20049;-74
2023/08/17 02:46:55;;;;;;;12.32;10.93;;;;;;;25.60;100.00;100513.81;20881214;28;20049;-75
2023/08/17 02:57:18;;;;;;;17.50;10.18;;;;;;;25.60;100.00;100511.09;20912022;28;20053;-74
2023/08/17 03:07:43;;;;;;;15.50;11.18;;;;;;;25.57;100.00;100501.31;20890776;28;20468;-73
2023/08/17 03:18:06;;;;;;;16.38;11.48;;;;;;;25.50;100.00;100507.94;20875994;28;20057;-74
2023/08/17 03:28:30;;;;;;;16.42;11.35;;;;;;;25.42;100.00;100493.91;20877109;28;20596;-74
2023/08/17 03:38:53;;;;;;;16.63;11.55;;;;;;;25.25;100.00;100513.69;20876833;28;20049;-73
2023/08/17 03:49:18;;;;;;;16.58;11.52;;;;;;;25.27;100.00;100517.16;20879450;28;20520;-74
2023/08/17 03:59:41;;;;;;;14.98;10.70;;;;;;;25.35;100.00;100524.91;20874502;28;20241;-74
2023/08/17 04:10:07;;;;;;;15.32;9.77;;;;;;;25.63;100.00;100524.44;20869756;28;20898;-73
2023/08/17 04:20:29;;;;;;;12.07;9.18;;;;;;;25.98;100.00;100536.19;20891454;28;20053;-74
2023/08/17 04:30:53;;;;;;;15.13;8.98;;;;;;;26.49;100.00;100533.47;20918283;28;20055;-74
2023/08/17 04:41:17;;;;;;;16.17;8.55;;;;;;;26.99;100.00;100546.09;20893400;28;20049;-74
2023/08/17 04:51:41;;;;;;;10.68;7.20;;;;;;;27.58;100.00;100550.84;20907620;28;20049;-74
2023/08/17 05:02:03;;;;;;;11.90;6.80;;;;;;;28.13;100.00;100551.19;20889059;28;20366;-74
2023/08/17 05:12:27;;;;;;;13.35;6.93;;;;;;;28.63;100.00;100549.94;20910377;28;20564;-74
2023/08/17 05:22:50;;;;;;;9.85;6.95;;;;;;;29.26;100.00;100555.00;20895944;28;20138;-73
2023/08/17 05:33:15;;;;;;;9.25;5.95;;;;;;;30.36;100.00;100548.47;20882124;28;20045;-75
2023/08/17 05:43:38;;;;;;;11.05;6.22;;;;;;;31.45;100.00;100556.03;20910676;28;20055;-74
2023/08/17 05:54:03;;;;;;;12.68;6.43;;;;;;;32.27;100.00;100549.78;20896049;28;20061;-74
2023/08/17 06:04:25;;;;;;;10.75;7.10;;;;;;;32.65;93.26;100557.69;20905174;28;20048;-74
2023/08/17 06:14:50;;;;;;;12.93;6.97;;;;;;;33.02;83.43;100553.75;20888955;28;20592;-74
2023/08/17 06:25:13;;;;;;;8.93;6.70;;;;;;;33.30;81.61;100551.53;20896455;28;20061;-74
2023/08/17 06:35:37;;;;;;;14.35;7.45;;;;;;;33.40;73.21;100558.00;20876974;28;20049;-73
2023/08/17 06:46:00;;;;;;;11.30;6.97;;;;;;;33.53;70.44;100570.56;20891082;28;20067;-74
2023/08/17 06:56:24;;;;;;;12.32;6.95;;;;;;;33.39;68.34;100573.56;20877570;28;20164;-74
2023/08/17 07:06:46;;;;;;;9.73;6.80;;;;;;;34.15;64.79;100574.47;20883761;28;20049;-73
2023/08/17 07:17:10;;;;;;;10.82;6.43;;;;;;;34.20;61.25;100574.97;20882569;28;20527;-71
2023/08/17 07:27:33;;;;;;;9.05;6.05;;;;;;;34.10;59.20;100571.25;20888331;28;20406;-72
2023/08/17 07:37:57;;;;;;;11.18;7.00;;;;;;;34.08;56.92;100579.59;20921655;28;20099;-72
2023/08/17 07:48:20;;;;;;;10.48;6.65;;;;;;;34.48;54.06;100576.19;20904030;28;20053;-73
2023/08/17 07:58:44;;;;;;;12.57;5.88;;;;;;;35.24;52.04;100578.56;20912350;28;20076;-72
2023/08/17 08:09:07;;;;;;;9.68;5.90;;;;;;;35.79;48.61;100576.25;20939033;28;20059;-72
2023/08/17 08:19:32;;;;;;;12.23;5.97;;;;;;;36.11;45.61;100585.09;20897118;28;20067;-72
2023/08/17 08:29:55;;;;;;;9.40;5.57;;;;;;;36.21;44.74;100577.78;20934721;28;20055;-72
2023/08/17 08:40:22;;;;;;;11.57;5.95;;;;;;;36.26;44.16;100589.19;20914240;28;20114;-73
2023/08/17 08:50:46;;;;;;;11.45;6.43;;;;;;;36.52;43.14;100583.09;20883698;28;20052;-73
2023/08/17 09:01:12;;;;;;;8.98;5.43;;;;;;;37.01;42.68;100577.34;20889904;28;20897;-74
2023/08/17 09:11:35;;;;;;;9.80;5.63;;;;;;;37.09;41.64;100579.31;20870217;28;20049;-73
2023/08/17 09:21:40;;;;;;;13.40;6.28;;;;;;;36.92;42.08;100575.47;20901575;28;20068;-74
2023/08/17 09:32:06;;;;;;;9.18;5.18;;;;;;;37.25;42.44;100584.22;20884835;28;20049;-74
2023/08/17 09:42:31;;;;;;;11.48;6.07;;;;;;;37.63;41.57;100581.28;20873794;28;20044;-74
2023/08/17 09:52:54;;;;;;;14.93;5.70;;;;;;;38.09;41.19;100569.22;20925369;28;20135;-75
2023/08/17 10:03:20;;;;;;;9.30;5.70;;;;;;;38.18;41.47;100575.69;20853199;28;20055;-73
2023/08/17 10:13:47;;;;;;;10.13;5.97;;;;;;;37.97;41.46;100573.22;20890181;28;20049;-73
2023/08/17 10:23:51;;;;;;;10.65;5.97;;;;;;;37.74;42.03;100577.47;20883780;28;20052;-74
2023/08/17 10:34:15;;;;;;;8.60;5.80;;;;;;;37.76;43.30;100590.06;20919178;28;20065;-73
2023/08/17 10:44:44;;;;;;;11.60;7.20;;;;;;;37.21;43.63;100566.28;20894385;28;20448;-74
2023/08/17 10:55:08;;;;;;;14.75;7.28;;;;;;;36.85;45.53;100571.59;20897384;28;20057;-74
2023/08/17 11:05:41;;;;;;;11.83;6.77;;;;;;;36.96;46.78;100576.91;20921982;28;20579;-73
2023/08/17 11:16:05;;;;;;;11.65;7.65;;;;;;;36.73;47.17;100572.78;20889115;28;20049;-72
2023/08/17 11:26:10;;;;;;;13.10;7.43;;;;;;;36.91;49.17;100568.25;20886116;28;20037;-73
2023/08/17 11:36:34;;;;;;;13.02;6.97;;;;;;;36.72;49.93;100560.03;20902617;28;20049;-73
2023/08/17 11:46:58;;;;;;;9.27;6.50;;;;;;;36.52;49.77;100552.81;20905264;28;20049;-74
2023/08/17 11:57:21;;;;;;;11.93;6.57;;;;;;;36.56;48.74;100551.53;20912055;28;20336;-73
2023/08/17 12:07:46;;;;;;;11.40;5.80;;;;;;;36.75;49.76;100543.25;20924799;28;20060;-74
2023/08/17 12:18:09;;;;;;;9.13;6.20;;;;;;;36.62;48.75;100539.94;20883230;28;20672;-73
2023/08/17 12:28:33;;;;;;;10.43;6.85;;;;;;;36.51;51.86;100534.56;20902296;28;20061;-73
2023/08/17 12:38:56;;;;;;;12.05;7.38;;;;;;;36.42;53.56;100536.34;20910023;28;20091;-73
2023/08/17 12:49:20;;;;;;;10.35;7.05;;;;;;;36.50;54.30;100527.31;20874891;28;20056;-71
2023/08/17 12:59:42;;;;;;;13.77;6.85;;;;;;;36.24;55.20;100533.47;20917361;28;20401;-72
2023/08/17 13:10:08;;;;;;;14.52;7.43;;;;;;;36.07;55.04;100527.81;20894020;28;20164;-72
2023/08/17 13:20:31;;;;;;;11.15;6.68;;;;;;;35.85;55.60;100531.69;20915779;28;20049;-72
2023/08/17 13:30:55;;;;;;;9.57;6.80;;;;;;;35.74;58.41;100540.09;20913476;28;20060;-73
2023/08/17 13:41:18;;;;;;;11.18;6.95;;;;;;;35.46;61.35;100560.97;20883160;28;20699;-72
2023/08/17 13:51:42;;;;;;;17.08;6.93;;;;;;;34.91;60.46;100559.59;20906576;28;20037;-73
2023/08/17 14:02:04;;;;;;;13.50;7.38;;;;;;;34.59;60.80;100548.72;20900931;28;20063;-73
2023/08/17 14:12:28;;;;;;;12.18;7.22;;;;;;;34.37;61.58;100544.22;20901157;28;20083;-72
2023/08/17 14:22:51;;;;;;;14.80;7.72;;;;;;;34.34;65.95;100539.88;20909350;28;20052;-72
2023/08/17 14:32:55;;;;;;;13.25;7.65;;;;;;;34.40;64.76;100543.94;20891401;28;20068;-72
2023/08/17 14:43:17;;;;;;;12.48;7.82;;;;;;;34.53;65.21;100541.03;20905220;28;20395;-72
2023/08/17 14:53:41;;;;;;;10.77;6.93;;;;;;;34.08;75.09;100543.09;20891462;28;20059;-72
2023/08/17 15:04:04;;;;;;;12.35;7.10;;;;;;;33.49;80.19;100551.75;20903936;28;20045;-72
2023/08/17 15:14:28;;;;;;;15.63;7.10;;;;;;;33.13;82.78;100545.56;20881547;28;20072;-73
2023/08/17 15:24:50;;;;;;;11.95;6.82;;;;;;;32.83;85.81;100553.50;20866266;28;20056;-72
2023/08/17 15:35:20;;;;;;;13.05;6.43;;;;;;;32.26;87.87;100548.03;20888163;28;20156;-72
2023/08/17 15:45:43;;;;;;;15.85;7.55;;;;;;;31.81;88.38;100541.50;20873438;28;20040;-72
2023/08/17 15:56:07;;;;;;;15.25;6.80;;;;;;;31.55;89.39;100535.25;20875496;28;20128;-73
2023/08/17 16:06:29;;;;;;;12.40;6.70;;;;;;;31.28;91.60;100535.47;20867585;28;20063;-72
2023/08/17 16:16:53;;;;;;;18.75;7.82;;;;;;;31.11;94.89;100544.03;20890612;28;20436;-71
2023/08/17 16:27:16;;;;;;;14.68;7.80;;;;;;;30.85;98.95;100545.91;20890523;28;20047;-72
2023/08/17 16:37:40;;;;;;;15.95;7.85;;;;;;;30.66;100.00;100543.59;20897661;28;20040;-72
2023/08/17 16:48:03;;;;;;;19.13;8.20;;;;;;;30.47;100.00;100545.84;20904914;28;20489;-73
2023/08/17 16:58:27;;;;;;;15.73;8.32;;;;;;;30.34;100.00;100545.84;20921395;28;20084;-72
2023/08/17 17:08:50;;;;;;;18.20;8.48;;;;;;;30.09;100.00;100565.75;20919441;28;20077;-73
2023/08/17 17:19:14;;;;;;;17.40;9.40;;;;;;;29.98;100.00;100559.28;20889537;28;20055;-72
2023/08/17 17:29:36;;;;;;;13.98;8.55;;;;;;;29.72;100.00;100552.84;20891289;28;20076;-72
2023/08/17 17:40:00;;;;;;;14.68;9.15;;;;;;;29.43;100.00;100557.50;20916575;28;20040;-73
2023/08/17 17:50:23;;;;;;;15.65;9.20;;;;;;;29.29;100.00;100552.06;20886082;28;20045;-72
2023/08/17 18:00:48;;;;;;;15.85;8.93;;;;;;;29.14;100.00;100558.53;20911150;28;20041;-73
2023/08/17 18:11:11;;;;;;;14.73;8.90;;;;;;;29.05;100.00;100575.41;20875408;28;20409;-72
2023/08/17 18:21:35;;;;;;;18.17;9.57;;;;;;;28.90;100.00;100580.84;20868105;28;20050;-73
2023/08/17 18:31:59;;;;;;;15.20;9.75;;;;;;;28.81;100.00;100586.88;20890310;28;20409;-73
2023/08/17 18:42:17;;;;;;;17.67;10.10;;;;;;;28.66;100.00;100589.63;20898648;28;20535;-72
2023/08/17 18:52:40;;;;;;;19.63;10.35;;;;;;;28.58;100.00;100586.50;20897896;28;20064;-72
2023/08/17 19:03:05;;;;;;;15.60;9.88;;;;;;;28.47;100.00;100598.06;20818848;28;20045;-73
2023/08/17 19:13:28;;;;;;;20.45;10.05;;;;;;;28.31;100.00;100599.94;20924620;28;20579;-73
2023/08/17 19:23:53;;;;;;;18.38;9.15;;;;;;;28.30;100.00;100598.19;20896057;28;20049;-72
2023/08/17 19:34:15;;;;;;;16.05;9.25;;;;;;;28.22;100.00;100604.09;20907934;28;20171;-72
2023/08/17 19:44:39;;;;;;;15.65;8.90;;;;;;;28.01;100.00;100592.66;20929787;28;20131;-73
2023/08/17 19:55:02;;;;;;;16.35;9.50;;;;;;;27.90;100.00;100603.25;20934895;28;20373;-72
2023/08/17 20:05:26;;;;;;;16.48;8.93;;;;;;;27.83;100.00;100598.28;20896105;28;20630;-72
2023/08/17 20:15:55;;;;;;;15.65;9.57;;;;;;;27.69;100.00;100599.09;20921953;28;20072;-73
2023/08/17 20:26:19;;;;;;;14.80;8.27;;;;;;;27.65;100.00;100603.78;20887955;28;20529;-72
2023/08/17 20:36:41;;;;;;;18.83;9.45;;;;;;;27.61;100.00;100606.78;20931989;28;20053;-72
2023/08/17 20:47:08;;;;;;;16.95;8.55;;;;;;;27.55;100.00;100596.28;20905718;28;20114;-72
2023/08/17 20:57:31;;;;;;;16.42;9.38;;;;;;;27.40;100.00;100592.56;20891145;28;20078;-72
2023/08/17 21:07:55;;;;;;;16.33;9.60;;;;;;;27.33;100.00;100580.31;20907338;28;20060;-71
2023/08/17 21:18:19;;;;;;;17.13;10.00;;;;;;;27.25;100.00;100567.19;20903056;28;20053;-71
2023/08/17 21:28:43;;;;;;;21.20;8.77;;;;;;;27.14;100.00;100575.06;20896442;28;20064;-71
2023/08/17 21:39:05;;;;;;;16.90;8.35;;;;;;;27.06;100.00;100563.75;20902234;28;20045;-71
2023/08/17 21:49:29;;;;;;;14.13;9.38;;;;;;;27.04;100.00;100572.97;20912678;28;20055;-72
2023/08/17 21:59:52;;;;;;;19.50;8.95;;;;;;;26.97;100.00;100567.00;20915902;28;20082;-72
2023/08/17 22:10:17;;;;;;;14.85;8.57;;;;;;;26.85;100.00;100575.75;20899071;28;20049;-71
2023/08/17 22:20:40;;;;;;;18.10;9.50;;;;;;;26.70;100.00;100579.31;20900771;28;20048;-71
2023/08/17 22:31:06;;;;;;;14.57;8.65;;;;;;;26.67;100.00;100574.94;20926197;28;20053;-71
2023/08/17 22:41:28;;;;;;;13.45;8.57;;;;;;;26.52;100.00;100564.91;20893149;28;20049;-72
2023/08/17 22:51:32;;;;;;;17.83;9.23;;;;;;;26.40;100.00;100557.44;20894122;28;20049;-72
2023/08/17 23:01:55;;;;;;;21.20;9.45;;;;;;;26.26;100.00;100557.28;20881348;28;20448;-72
2023/08/17 23:11:59;;;;;;;17.75;9.57;;;;;;;26.15;100.00;100561.41;20894081;28;20114;-71
2023/08/17 23:22:21;;;;;;;18.73;9.32;;;;;;;26.06;100.00;100555.59;20923970;28;20083;-72
2023/08/17 23:32:45;;;;;;;16.83;9.27;;;;;;;25.91;100.00;100543.75;20916437;28;20085;-72
2023/08/17 23:43:06;;;;;;;18.30;9.15;;;;;;;25.80;100.00;100530.75;20923885;28;20049;-72
2023/08/17 23:53:30;;;;;;;23.33;9.38;;;;;;;25.75;100.00;100537.34;20915623;28;20045;-72
